Time;durP1;ratioP1;P1;durP2;ratioP2;P2;SDS_P1;SDS_P2;PMS_P1;PMS_P2;Temp;Humidity;BMP_temperature;BMP_pressure;BME280_temperature;BME280_humidity;BME280_pressure;Samples;Min_cycle;Max_cycle;Signal;HPM_P1;HPM_P2
2022/02/24 16:30:52;;;;;;;;;;;2.60;99.80;;;;;;5008597;27;2631655;-95
2022/02/24 16:33:38;;;;;;;;;;;3.50;99.90;;;;;;5104220;28;19934;-96
2022/02/24 16:36:09;;;;;;;;;;;3.40;99.90;;;;;;5103121;28;19909;-96
2022/02/24 16:38:37;;;;;;;;;;;3.50;99.90;;;;;;5084608;28;19971;-96
2022/02/24 16:41:13;;;;;;;;;;;3.50;99.90;;;;;;5106963;28;19938;-96
2022/02/24 16:43:40;;;;;;;;;;;3.50;99.90;;;;;;5080097;28;19908;-96
2022/02/24 16:46:11;;;;;;;;;;;3.40;99.90;;;;;;5082965;28;19908;-96
2022/02/24 16:48:49;;;;;;;;;;;3.40;99.90;;;;;;5084413;28;20350;-96
2022/02/24 16:51:14;;;;;;;;;;;3.40;99.90;;;;;;5082713;28;19912;-96
2022/02/24 16:53:56;;;;;;;;;;;3.30;99.90;;;;;;5083040;28;20402;-95
2022/02/24 17:02:31;;;;;;;;;;;3.20;99.90;;;;;;4996396;28;20454;-95
2022/02/24 17:04:57;;;;;;;;;;;3.20;99.90;;;;;;4991852;28;19910;-96
2022/02/24 17:17:58;;;;;;;;;;;2.90;99.90;;;;;;5523025;23;19910;-96
2022/02/24 17:20:36;;;;;;;;;;;2.80;99.90;;;;;;5018796;28;19913;-96
2022/02/24 17:23:28;;;;;;;;;;;2.70;99.90;;;;;;5028700;28;19913;-96
2022/02/24 17:25:57;;;;;;;;;;;2.60;99.90;;;;;;5039504;28;19997;-95
2022/02/24 17:28:23;;;;;;;;;;;2.60;99.90;;;;;;5023822;28;19918;-96
2022/02/24 17:30:48;;;;;;;;;;;2.50;99.90;;;;;;5001281;28;19960;-95
2022/02/24 17:33:17;;;;;;;;;;;2.40;99.90;;;;;;5003514;28;19914;-96
2022/02/24 17:35:46;;;;;;;;;;;2.30;99.90;;;;;;4981805;28;19917;-94
2022/02/24 17:38:13;;;;;;;;;;;2.20;99.90;;;;;;5002451;28;19920;-95
2022/02/24 17:40:39;;;;;;;;;;;2.10;99.90;;;;;;5012022;28;20247;-95
2022/02/24 17:43:06;;;;;;;;;;;2.10;99.90;;;;;;4998560;28;19921;-95
2022/02/24 17:45:33;;;;;;;;;;;2.00;99.90;;;;;;5010039;28;19985;-95
2022/02/24 17:47:59;;;;;;;;;;;2.00;99.90;;;;;;5014683;28;20000;-96
2022/02/24 17:55:34;;;;;;;;;;;1.80;99.90;;;;;;5051372;28;19925;-96
2022/02/24 17:58:10;;;;;;;;;;;1.70;99.90;;;;;;5028965;28;19943;-95
2022/02/24 18:00:38;;;;;;;;;;;1.60;99.90;;;;;;5031248;28;19949;-95
2022/02/24 18:03:20;;;;;;;;;;;1.60;99.90;;;;;;5036230;28;19909;-95
2022/02/24 18:06:02;;;;;;;;;;;1.50;99.90;;;;;;5023519;28;19913;-96
2022/02/24 18:08:30;;;;;;;;;;;1.40;99.90;;;;;;5012002;28;19960;-95
2022/02/24 18:10:56;;;;;;;;;;;1.40;99.90;;;;;;5021905;28;19913;-96
2022/02/24 18:13:22;;;;;;;;;;;1.30;99.90;;;;;;5012524;28;19913;-93
2022/02/24 18:15:52;;;;;;;;;;;1.30;99.90;;;;;;5025913;28;19913;-95
2022/02/24 18:18:18;;;;;;;;;;;1.20;99.90;;;;;;5017003;28;19967;-94
2022/02/24 18:20:44;;;;;;;;;;;1.10;99.90;;;;;;5021384;28;19981;-96
2022/02/24 18:23:16;;;;;;;;;;;1.10;99.90;;;;;;5201237;23;19990;-94
2022/02/24 18:31:33;;;;;;;;;;;0.90;99.90;;;;;;5010185;28;20361;-95
2022/02/24 18:34:02;;;;;;;;;;;0.80;99.90;;;;;;5009102;28;19941;-96
2022/02/24 18:36:31;;;;;;;;;;;0.80;99.90;;;;;;5010256;28;19941;-96
2022/02/24 18:38:57;;;;;;;;;;;0.70;99.90;;;;;;4996700;28;20308;-96
2022/02/24 18:43:58;;;;;;;;;;;0.60;99.90;;;;;;5660517;22;19981;-95
2022/02/24 18:46:26;;;;;;;;;;;0.60;99.90;;;;;;5006293;28;20271;-94
2022/02/24 18:48:52;;;;;;;;;;;0.50;99.90;;;;;;4982390;28;19914;-94
2022/02/24 18:51:18;;;;;;;;;;;0.50;99.90;;;;;;5008217;28;19909;-96
2022/02/24 18:53:47;;;;;;;;;;;0.50;99.90;;;;;;5013576;28;19945;-95
2022/02/24 18:56:18;;;;;;;;;;;0.40;99.90;;;;;;4992328;28;19917;-94
2022/02/24 18:58:46;;;;;;;;;;;0.40;99.90;;;;;;4985695;28;19910;-96
2022/02/24 19:01:22;;;;;;;;;;;0.40;99.90;;;;;;4983540;28;19901;-96
2022/02/24 19:04:06;;;;;;;;;;;0.30;99.90;;;;;;5047410;23;19910;-96
2022/02/24 19:06:52;;;;;;;;;;;0.30;99.90;;;;;;5093692;23;20012;-96
2022/02/24 19:09:17;;;;;;;;;;;0.20;99.90;;;;;;5030939;28;19917;-96
2022/02/24 19:11:44;;;;;;;;;;;0.10;99.90;;;;;;5023812;28;19910;-96
2022/02/24 19:14:11;;;;;;;;;;;0.20;99.90;;;;;;5017663;28;19917;-94
2022/02/24 19:16:38;;;;;;;;;;;0.10;99.90;;;;;;5029036;28;19909;-96
2022/02/24 19:19:32;;;;;;;;;;;0.10;99.90;;;;;;5054474;28;19897;-96
2022/02/24 19:24:54;;;;;;;;;;;0.10;99.90;;;;;;5180154;23;19932;-96
2022/02/24 19:30:19;;;;;;;;;;;0.00;99.90;;;;;;5894775;23;19918;-96
2022/02/24 19:33:03;;;;;;;;;;;0.00;99.90;;;;;;5007343;28;19918;-96
2022/02/24 19:47:37;;;;;;;;;;;-0.20;99.90;;;;;;5039367;28;19927;-96
2022/02/24 19:50:22;;;;;;;;;;;;;;;;;;;;;
2022/02/24 19:53:18;;;;;;;;;;;-0.20;99.90;;;;;;5044516;28;19948;-96
2022/02/24 19:55:45;;;;;;;;;;;-0.30;99.90;;;;;;5017850;28;19910;-95
2022/02/24 20:01:48;;;;;;;;;;;;;;;;;;;;;
2022/02/24 20:04:47;;;;;;;;;;;-0.30;99.90;;;;;;5025826;28;19961;-95
2022/02/24 20:07:17;;;;;;;;;;;-0.40;99.90;;;;;;5030225;28;19985;-96
2022/02/24 20:12:19;;;;;;;;;;;-0.40;99.90;;;;;;5084009;23;19932;-95
2022/02/24 20:14:45;;;;;;;;;;;-0.40;99.90;;;;;;5196506;23;20034;-96
2022/02/24 20:17:11;;;;;;;;;;;-0.40;99.90;;;;;;5019120;28;20371;-95
2022/02/24 21:11:57;;;;;;;;;;;-0.90;99.90;;;;;;6064387;23;19926;-94
2022/02/24 21:45:24;;;;;;;;;;;-2.10;99.80;;;;;;4207276;27;25853015;-96
